createdAt,value
2023-05-06T00:07:49.522Z,98627.47
2023-05-06T00:10:40.066Z,98635.22
2023-05-06T00:13:25.406Z,98630.19
2023-05-06T00:16:11.503Z,98625.94
2023-05-06T00:18:57.549Z,98620.31
2023-05-06T00:21:42.267Z,98618.53
2023-05-06T00:24:09.224Z,98613.94
2023-05-06T00:26:36.257Z,98602.50
2023-05-06T00:29:03.228Z,98611.25
2023-05-06T00:31:30.170Z,98598.97
2023-05-06T00:33:57.182Z,98608.47
2023-05-06T00:36:24.128Z,98601.13
2023-05-06T00:38:51.258Z,98599.47
2023-05-06T00:41:18.230Z,98600.50
2023-05-06T00:43:45.195Z,98579.34
2023-05-06T00:46:14.890Z,98602.84
2023-05-06T00:48:43.557Z,98597.44
2023-05-06T00:51:11.748Z,98584.09
2023-05-06T00:53:40.171Z,98593.59
2023-05-06T00:56:08.031Z,98593.41
2023-05-06T00:58:35.619Z,98593.19
2023-05-06T01:01:03.431Z,98589.69
2023-05-06T01:03:30.504Z,98588.84
2023-05-06T01:06:33.099Z,98589.94
2023-05-06T01:09:51.281Z,98589.94
2023-05-06T01:13:13.189Z,98591.34
2023-05-06T01:16:06.590Z,98599.72
2023-05-06T01:18:45.710Z,98604.09
2023-05-06T01:21:13.928Z,98605.09
2023-05-06T01:23:58.379Z,98583.03
2023-05-06T01:26:26.055Z,98601.34
2023-05-06T01:28:53.436Z,98593.81
2023-05-06T01:31:30.256Z,98600.22
2023-05-06T01:34:00.479Z,98599.28
2023-05-06T01:36:53.840Z,98598.09
2023-05-06T01:39:27.007Z,98594.09
2023-05-06T01:41:57.655Z,98598.66
2023-05-06T01:44:27.879Z,98593.66
2023-05-06T01:46:56.524Z,98544.41
2023-05-06T01:49:25.551Z,98595.69
2023-05-06T01:51:53.595Z,98600.63
2023-05-06T01:54:20.701Z,98591.97
2023-05-06T01:56:47.691Z,98585.91
2023-05-06T01:59:14.669Z,98584.53
2023-05-06T02:01:41.566Z,98592.34
2023-05-06T02:04:08.658Z,98588.81
2023-05-06T02:06:35.647Z,98580.06
2023-05-06T02:09:02.781Z,98575.16
2023-05-06T02:11:29.700Z,98508.00
2023-05-06T02:13:56.670Z,98575.63
2023-05-06T02:16:23.609Z,98569.88
2023-05-06T02:18:51.109Z,98570.72
2023-05-06T02:21:18.037Z,98555.78
2023-05-06T02:23:44.943Z,98550.72
2023-05-06T02:26:11.923Z,98564.56
2023-05-06T02:28:38.814Z,98552.56
2023-05-06T02:31:06.171Z,98553.81
2023-05-06T02:33:33.196Z,98556.13
2023-05-06T02:36:00.177Z,98558.06
2023-05-06T02:38:27.065Z,98560.84
2023-05-06T02:40:53.991Z,98558.34
2023-05-06T02:43:21.019Z,98555.38
2023-05-06T02:45:48.182Z,98553.25
2023-05-06T02:48:15.119Z,98555.63
2023-05-06T02:50:42.176Z,98560.19
2023-05-06T02:53:10.641Z,98561.41
2023-05-06T02:55:37.705Z,98557.66
2023-05-06T02:58:04.607Z,98555.81
2023-05-06T03:00:31.532Z,98560.19
2023-05-06T03:02:58.508Z,98547.72
2023-05-06T03:05:25.446Z,98556.38
2023-05-06T03:07:52.723Z,98560.91
2023-05-06T03:10:19.839Z,98566.13
2023-05-06T03:12:46.734Z,98557.59
2023-05-06T03:15:13.787Z,98560.28
2023-05-06T03:17:40.701Z,98561.22
2023-05-06T03:20:09.140Z,98554.34
2023-05-06T03:22:36.103Z,98551.47
2023-05-06T03:25:03.095Z,98552.66
2023-05-06T03:27:30.035Z,98541.91
2023-05-06T03:29:57.030Z,98545.88
2023-05-06T03:32:23.962Z,98551.75
2023-05-06T03:34:51.199Z,98550.34
2023-05-06T03:37:19.046Z,98553.88
2023-05-06T03:39:46.014Z,98547.66
2023-05-06T03:42:12.982Z,98552.28
2023-05-06T03:44:39.925Z,98550.72
2023-05-06T03:47:06.845Z,98559.94
2023-05-06T03:49:33.782Z,98560.03
2023-05-06T03:52:00.782Z,98567.72
2023-05-06T03:54:27.688Z,98563.63
2023-05-06T03:56:54.628Z,98554.13
2023-05-06T03:59:21.541Z,98562.66
2023-05-06T04:01:48.493Z,98566.47
2023-05-06T04:04:15.436Z,98568.88
2023-05-06T04:06:42.448Z,98569.97
2023-05-06T04:09:09.790Z,98567.16
2023-05-06T04:11:36.689Z,98564.72
2023-05-06T04:14:03.632Z,98558.94
2023-05-06T04:16:30.706Z,98558.19
2023-05-06T04:18:57.893Z,98558.81
2023-05-06T04:21:24.884Z,98551.94
2023-05-06T04:23:51.831Z,98559.06
2023-05-06T04:26:18.736Z,98562.22
2023-05-06T04:28:45.826Z,98563.31
2023-05-06T04:31:14.700Z,98556.13
2023-05-06T04:33:42.242Z,98539.00
2023-05-06T04:36:09.437Z,98550.59
2023-05-06T04:38:37.619Z,98551.91
2023-05-06T04:41:05.750Z,98542.34
2023-05-06T04:43:33.146Z,98550.50
2023-05-06T04:46:00.239Z,98553.44
2023-05-06T04:48:27.334Z,98542.78
2023-05-06T04:50:54.465Z,98542.22
2023-05-06T04:53:21.523Z,98529.81
2023-05-06T04:55:48.466Z,98530.50
2023-05-06T04:58:15.455Z,98528.53
2023-05-06T05:00:42.465Z,98529.00
2023-05-06T05:03:09.497Z,98531.78
2023-05-06T05:05:36.520Z,98537.47
2023-05-06T05:08:03.551Z,98532.66
2023-05-06T05:10:30.578Z,98554.41
2023-05-06T05:12:57.702Z,98545.53
2023-05-06T05:15:24.755Z,98555.56
2023-05-06T05:17:51.988Z,98555.81
2023-05-06T05:20:18.972Z,98551.47
2023-05-06T05:22:45.931Z,98542.97
2023-05-06T05:25:13.198Z,98544.25
2023-05-06T05:27:42.393Z,98545.53
2023-05-06T05:30:09.935Z,98548.69
2023-05-06T05:32:36.905Z,98533.41
2023-05-06T05:35:04.276Z,98539.50
2023-05-06T05:37:31.472Z,98528.25
2023-05-06T05:39:58.638Z,98535.56
2023-05-06T05:42:25.623Z,98525.53
2023-05-06T05:44:52.923Z,98528.69
2023-05-06T05:47:19.907Z,98533.59
2023-05-06T05:49:46.910Z,98533.22
2023-05-06T05:52:13.809Z,98515.00
2023-05-06T05:54:41.106Z,98529.34
2023-05-06T05:57:08.076Z,98511.56
2023-05-06T05:59:35.272Z,98511.25
2023-05-06T06:02:02.278Z,98505.78
2023-05-06T06:04:29.230Z,98503.34
2023-05-06T06:07:01.575Z,98502.94
2023-05-06T06:09:28.517Z,98505.72
2023-05-06T06:11:55.628Z,98496.47
2023-05-06T06:14:22.668Z,98504.97
2023-05-06T06:16:49.644Z,98493.13
2023-05-06T06:19:16.936Z,98510.72
2023-05-06T06:21:43.959Z,98490.72
2023-05-06T06:24:10.922Z,98493.75
2023-05-06T06:26:37.861Z,98487.91
2023-05-06T06:29:04.764Z,98490.59
2023-05-06T06:31:34.164Z,98496.78
2023-05-06T06:34:01.202Z,98489.66
2023-05-06T06:36:28.205Z,98493.75
2023-05-06T06:38:55.154Z,98496.91
2023-05-06T06:41:22.087Z,98486.91
2023-05-06T06:43:48.987Z,98486.16
2023-05-06T06:46:16.238Z,98480.81
2023-05-06T06:48:43.174Z,98485.13
2023-05-06T06:51:10.137Z,98469.72
2023-05-06T06:53:37.221Z,98480.28
2023-05-06T06:56:04.271Z,98472.41
2023-05-06T06:58:33.499Z,98473.31
2023-05-06T07:01:00.460Z,98462.91
2023-05-06T07:03:27.415Z,98468.53
2023-05-06T07:05:54.294Z,98463.53
2023-05-06T07:08:22.539Z,98469.88
2023-05-06T07:10:49.460Z,98457.84
2023-05-06T07:13:16.894Z,98447.91
2023-05-06T07:15:43.863Z,98442.97
2023-05-06T07:18:10.859Z,98450.44
2023-05-06T07:20:37.918Z,98436.03
2023-05-06T07:23:04.877Z,98439.81
2023-05-06T07:25:32.558Z,98441.56
2023-05-06T07:27:59.595Z,98442.16
2023-05-06T07:30:26.698Z,98435.22
2023-05-06T07:32:53.743Z,98440.59
2023-05-06T07:35:20.767Z,98432.47
2023-05-06T07:37:47.938Z,98433.53
2023-05-06T07:40:14.906Z,98431.16
2023-05-06T07:42:43.212Z,98432.34
2023-05-06T07:45:10.886Z,98432.59
2023-05-06T07:47:38.223Z,98425.59
2023-05-06T07:50:07.088Z,98425.84
2023-05-06T07:52:34.136Z,98431.56
2023-05-06T07:55:01.187Z,98427.03
2023-05-06T07:57:28.219Z,98434.88
2023-05-06T07:59:55.405Z,98420.63
2023-05-06T08:02:22.543Z,98424.75
2023-05-06T08:04:51.614Z,98430.94
2023-05-06T08:07:19.396Z,98418.50
2023-05-06T08:09:46.676Z,98417.41
2023-05-06T08:12:13.895Z,98417.41
2023-05-06T08:14:41.052Z,98413.41
2023-05-06T08:17:07.937Z,98418.59
2023-05-06T08:19:34.910Z,98417.06
2023-05-06T08:22:01.811Z,98432.59
2023-05-06T08:24:28.847Z,98422.50
2023-05-06T08:26:55.836Z,98424.75
2023-05-06T08:29:22.828Z,98417.28
2023-05-06T08:31:49.809Z,98417.53
2023-05-06T08:34:18.740Z,98395.13
2023-05-06T08:36:45.636Z,98410.06
2023-05-06T08:39:14.743Z,98414.53
2023-05-06T08:41:47.413Z,98418.59
2023-05-06T08:44:18.989Z,98413.97
2023-05-06T08:46:47.250Z,98415.31
2023-05-06T08:49:14.415Z,98418.16
2023-05-06T08:51:46.959Z,98413.06
2023-05-06T08:54:13.958Z,98372.91
2023-05-06T08:56:46.130Z,98401.81
2023-05-06T08:59:14.028Z,98392.88
2023-05-06T09:01:41.148Z,98385.84
2023-05-06T09:04:08.610Z,98389.28
2023-05-06T09:06:35.649Z,98384.09
2023-05-06T09:09:02.609Z,98366.34
2023-05-06T09:11:30.843Z,98370.06
2023-05-06T09:14:27.211Z,98369.28
2023-05-06T09:16:54.219Z,98374.91
2023-05-06T09:19:23.207Z,98367.31
2023-05-06T09:21:51.833Z,98355.88
2023-05-06T09:24:19.346Z,98358.78
2023-05-06T09:26:47.216Z,98351.00
2023-05-06T09:29:14.311Z,98349.63
2023-05-06T09:31:43.214Z,98350.00
2023-05-06T09:34:11.143Z,98338.94
2023-05-06T09:36:38.376Z,98356.31
2023-05-06T09:39:05.934Z,98358.38
2023-05-06T09:41:33.608Z,98369.50
2023-05-06T09:44:00.747Z,98369.84
2023-05-06T09:46:30.629Z,98374.84
2023-05-06T09:48:58.943Z,98398.03
2023-05-06T09:51:28.725Z,98390.56
2023-05-06T09:53:57.960Z,98391.00
2023-05-06T09:56:26.324Z,98392.41
2023-05-06T09:58:55.933Z,98398.34
2023-05-06T10:01:35.535Z,98414.88
2023-05-06T10:04:08.708Z,98418.03
2023-05-06T10:06:37.224Z,98424.84
2023-05-06T10:09:06.499Z,98424.00
2023-05-06T10:11:33.666Z,98424.56
2023-05-06T10:14:01.622Z,98419.00
2023-05-06T10:16:30.069Z,98424.91
2023-05-06T10:18:58.625Z,98417.28
2023-05-06T10:21:30.270Z,98419.00
2023-05-06T10:24:13.680Z,98419.56
2023-05-06T10:26:42.936Z,98415.47
2023-05-06T10:29:11.165Z,98416.41
2023-05-06T10:31:55.528Z,98411.06
2023-05-06T10:34:24.461Z,98412.59
2023-05-06T10:36:57.763Z,98402.66
2023-05-06T10:39:26.171Z,98399.00
2023-05-06T10:41:53.572Z,98396.09
2023-05-06T10:44:58.890Z,98393.22
2023-05-06T10:47:26.137Z,98401.50
2023-05-06T10:50:24.865Z,98397.66
2023-05-06T10:52:56.838Z,98393.13
2023-05-06T10:55:29.583Z,98385.38
2023-05-06T10:58:00.600Z,98380.00
2023-05-06T11:00:31.702Z,98373.47
2023-05-06T11:03:02.329Z,98385.25
2023-05-06T11:05:29.466Z,98392.56
2023-05-06T11:08:22.259Z,98405.69
2023-05-06T11:10:49.312Z,98402.59
2023-05-06T11:13:28.039Z,98389.81
2023-05-06T11:15:56.861Z,98383.78
2023-05-06T11:18:27.899Z,98373.91
2023-05-06T11:21:03.734Z,98378.09
2023-05-06T11:23:43.178Z,98360.34
2023-05-06T11:26:11.474Z,98357.63
2023-05-06T11:28:39.293Z,98353.16
2023-05-06T11:31:06.564Z,98360.59
2023-05-06T11:33:35.926Z,98361.22
2023-05-06T11:36:04.828Z,98343.16
2023-05-06T11:38:45.938Z,98349.31
2023-05-06T11:41:13.413Z,98338.88
2023-05-06T11:43:40.505Z,98343.31
2023-05-06T11:46:07.577Z,98343.53
2023-05-06T11:48:34.614Z,98347.94
2023-05-06T11:51:01.606Z,98348.75
2023-05-06T11:53:30.220Z,98335.84
2023-05-06T11:55:57.159Z,98342.31
2023-05-06T11:58:26.825Z,98336.44
2023-05-06T12:00:58.727Z,98343.09
2023-05-06T12:03:27.800Z,98344.16
2023-05-06T12:05:55.983Z,98342.50
2023-05-06T12:08:28.210Z,98333.78
2023-05-06T12:11:04.728Z,98333.97
2023-05-06T12:13:32.144Z,98342.25
2023-05-06T12:16:00.413Z,98347.03
2023-05-06T12:18:28.138Z,98337.25
2023-05-06T12:20:56.412Z,98358.03
2023-05-06T12:23:23.702Z,98355.97
2023-05-06T12:26:04.949Z,98357.41
2023-05-06T12:28:36.883Z,98355.06
2023-05-06T12:31:23.414Z,98358.19
2023-05-06T12:33:50.883Z,98352.97
2023-05-06T12:36:21.051Z,98347.53
2023-05-06T12:38:52.912Z,98357.53
2023-05-06T12:41:21.530Z,98371.25
2023-05-06T12:43:48.601Z,98373.66
2023-05-06T12:46:17.345Z,98363.91
2023-05-06T12:49:01.113Z,98366.19
2023-05-06T12:51:30.941Z,98378.63
2023-05-06T12:53:58.213Z,98350.13
2023-05-06T12:56:25.387Z,98367.53
2023-05-06T12:59:02.654Z,98368.38
2023-05-06T13:01:29.724Z,98368.53
2023-05-06T13:03:59.414Z,98343.59
2023-05-06T13:06:26.455Z,98363.91
2023-05-06T13:08:53.457Z,98360.53
2023-05-06T13:11:22.453Z,98359.28
2023-05-06T13:13:49.446Z,98358.41
2023-05-06T13:16:16.599Z,98371.94
2023-05-06T13:18:43.582Z,98369.00
2023-05-06T13:21:10.636Z,98369.34
2023-05-06T13:23:38.343Z,98364.31
2023-05-06T13:26:06.206Z,98367.19
2023-05-06T13:28:34.157Z,98374.69
2023-05-06T13:31:01.227Z,98369.44
2023-05-06T13:33:28.172Z,98374.84
2023-05-06T13:35:55.154Z,98369.22
2023-05-06T13:38:22.216Z,98378.50
2023-05-06T13:40:51.707Z,98364.34
2023-05-06T13:43:19.595Z,98358.81
2023-05-06T13:45:46.778Z,98358.69
2023-05-06T13:48:14.338Z,98360.09
2023-05-06T13:50:48.701Z,98354.38
2023-05-06T13:53:15.782Z,98365.09
2023-05-06T13:55:43.704Z,98354.88
2023-05-06T13:58:11.367Z,98359.22
2023-05-06T14:00:38.422Z,98361.50
2023-05-06T14:03:05.479Z,98367.53
2023-05-06T14:05:32.930Z,98353.78
2023-05-06T14:08:00.060Z,98360.69
2023-05-06T14:10:27.172Z,98357.28
2023-05-06T14:12:54.189Z,98350.41
2023-05-06T14:15:21.373Z,98358.19
2023-05-06T14:17:48.338Z,98353.22
2023-05-06T14:20:15.355Z,98362.72
2023-05-06T14:22:44.206Z,98332.13
2023-05-06T14:25:11.721Z,98348.06
2023-05-06T14:27:39.011Z,98353.59
2023-05-06T14:30:08.996Z,98356.25
2023-05-06T14:32:37.200Z,98345.56
2023-05-06T14:35:04.884Z,98355.09
2023-05-06T14:37:31.843Z,98365.03
2023-05-06T14:39:58.771Z,98354.84
2023-05-06T14:42:25.903Z,98359.91
2023-05-06T14:44:52.915Z,98359.69
2023-05-06T14:47:20.040Z,98355.25
2023-05-06T14:49:47.162Z,98360.97
2023-05-06T14:52:14.066Z,98350.66
2023-05-06T14:54:42.655Z,98342.88
2023-05-06T14:57:10.243Z,98344.09
2023-05-06T14:59:37.691Z,98342.16
2023-05-06T15:02:07.260Z,98348.16
2023-05-06T15:04:35.128Z,98329.97
2023-05-06T15:07:02.410Z,98341.28
2023-05-06T15:09:29.425Z,98348.81
2023-05-06T15:11:56.418Z,98348.81
2023-05-06T15:14:23.409Z,98344.28
2023-05-06T15:16:50.323Z,98354.94
2023-05-06T15:19:17.277Z,98361.09
2023-05-06T15:21:44.294Z,98359.69
2023-05-06T15:24:11.212Z,98354.88
2023-05-06T15:26:38.104Z,98357.88
2023-05-06T15:29:06.590Z,98360.16
2023-05-06T15:31:39.181Z,98367.09
2023-05-06T15:34:09.878Z,98363.09
2023-05-06T15:36:37.308Z,98364.81
2023-05-06T15:39:04.587Z,98356.81
2023-05-06T15:41:33.663Z,98368.47
2023-05-06T15:44:02.255Z,98371.41
2023-05-06T15:46:30.925Z,98356.09
2023-05-06T15:49:21.099Z,98374.16
2023-05-06T15:51:44.976Z,98367.50
2023-05-06T15:54:11.908Z,98372.66
2023-05-06T15:56:41.444Z,98377.78
2023-05-06T15:59:09.191Z,98380.19
2023-05-06T16:02:18.770Z,98374.59
2023-05-06T16:04:24.532Z,98382.91
2023-05-06T16:06:51.673Z,98381.72
2023-05-06T16:09:18.637Z,98373.81
2023-05-06T16:11:45.582Z,98385.38
2023-05-06T16:14:12.996Z,98379.56
2023-05-06T16:16:40.084Z,98383.41
2023-05-06T16:19:07.633Z,98383.72
2023-05-06T16:21:34.742Z,98378.91
2023-05-06T16:24:02.667Z,98394.16
2023-05-06T16:26:29.776Z,98385.66
2023-05-06T16:28:56.701Z,98386.50
2023-05-06T16:31:23.735Z,98389.13
2023-05-06T16:33:51.206Z,98397.06
2023-05-06T16:36:18.149Z,98401.50
2023-05-06T16:38:45.047Z,98391.13
2023-05-06T16:41:11.964Z,98394.03
2023-05-06T16:43:38.856Z,98382.47
2023-05-06T16:46:06.536Z,98383.25
2023-05-06T16:48:33.602Z,98381.41
2023-05-06T16:51:00.650Z,98379.09
2023-05-06T16:53:28.150Z,98370.81
2023-05-06T16:55:55.698Z,98372.94
2023-05-06T16:58:22.673Z,98383.28
2023-05-06T17:00:52.802Z,98381.63
2023-05-06T17:03:19.801Z,98382.91
2023-05-06T17:05:47.132Z,98383.41
2023-05-06T17:08:14.173Z,98376.25
2023-05-06T17:10:41.116Z,98394.41
2023-05-06T17:13:08.204Z,98385.63
2023-05-06T17:15:35.360Z,98388.41
2023-05-06T17:18:02.384Z,98392.25
2023-05-06T17:20:29.523Z,98387.69
2023-05-06T17:22:56.481Z,98397.47
2023-05-06T17:25:23.666Z,98352.13
2023-05-06T17:27:50.657Z,98384.75
2023-05-06T17:30:17.673Z,98390.00
2023-05-06T17:32:44.664Z,98391.22
2023-05-06T17:35:12.193Z,98385.25
2023-05-06T17:37:39.584Z,98388.78
2023-05-06T17:40:07.837Z,98395.41
2023-05-06T17:42:35.022Z,98394.13
2023-05-06T17:45:02.018Z,98400.47
2023-05-06T17:47:30.384Z,98404.63
2023-05-06T17:49:57.704Z,98388.97
2023-05-06T17:52:28.450Z,98352.03
2023-05-06T17:55:10.614Z,98391.69
2023-05-06T17:57:42.242Z,98351.00
2023-05-06T18:00:09.832Z,98390.56
2023-05-06T18:02:37.048Z,98347.75
2023-05-06T18:05:04.671Z,98382.31
2023-05-06T18:07:31.682Z,98391.00
2023-05-06T18:09:58.637Z,98397.53
2023-05-06T18:12:25.650Z,98394.84
2023-05-06T18:14:52.600Z,98405.47
2023-05-06T18:17:19.518Z,98407.59
2023-05-06T18:19:46.531Z,98410.72
2023-05-06T18:22:13.483Z,98419.91
2023-05-06T18:24:40.433Z,98414.09
2023-05-06T18:27:07.372Z,98382.47
2023-05-06T18:29:35.343Z,98424.53
2023-05-06T18:32:02.667Z,98423.94
2023-05-06T18:34:29.698Z,98434.16
2023-05-06T18:36:58.143Z,98438.94
2023-05-06T18:39:25.607Z,98435.19
2023-05-06T18:41:52.760Z,98433.75
2023-05-06T18:44:19.869Z,98437.09
2023-05-06T18:46:46.916Z,98445.38
2023-05-06T18:49:14.407Z,98447.06
2023-05-06T18:51:41.490Z,98446.66
2023-05-06T18:54:08.634Z,98448.09
2023-05-06T18:56:37.013Z,98432.50
2023-05-06T18:59:04.069Z,98457.50
2023-05-06T19:01:31.155Z,98440.84
2023-05-06T19:03:58.379Z,98456.66
2023-05-06T19:06:25.533Z,98462.28
2023-05-06T19:08:53.831Z,98471.44
2023-05-06T19:11:21.481Z,98431.25
2023-05-06T19:13:49.617Z,98464.16
2023-05-06T19:16:16.631Z,98467.66
2023-05-06T19:18:43.706Z,98470.19
2023-05-06T19:21:12.342Z,98470.38
2023-05-06T19:23:39.467Z,98467.06
2023-05-06T19:26:06.901Z,98422.94
2023-05-06T19:28:34.511Z,98467.06
2023-05-06T19:31:01.781Z,98476.25
2023-05-06T19:33:28.873Z,98483.94
2023-05-06T19:35:55.921Z,98482.88
2023-05-06T19:38:22.840Z,98476.22
2023-05-06T19:40:49.828Z,98483.28
2023-05-06T19:43:16.880Z,98463.75
2023-05-06T19:45:43.837Z,98479.97
2023-05-06T19:48:10.874Z,98486.00
2023-05-06T19:50:37.803Z,98473.31
2023-05-06T19:53:04.740Z,98483.06
2023-05-06T19:55:31.952Z,98482.03
2023-05-06T19:57:59.321Z,98489.56
2023-05-06T20:00:28.403Z,98485.19
2023-05-06T20:02:57.809Z,98475.81
2023-05-06T20:05:29.964Z,98449.56
2023-05-06T20:07:59.677Z,98447.66
2023-05-06T20:10:27.663Z,98430.81
2023-05-06T20:12:57.317Z,98481.63
2023-05-06T20:15:24.821Z,98483.28
2023-05-06T20:17:51.777Z,98470.38
2023-05-06T20:20:19.281Z,98494.94
2023-05-06T20:22:46.341Z,98499.06
2023-05-06T20:25:17.734Z,98477.88
2023-05-06T20:27:45.571Z,98487.22
2023-05-06T20:30:12.994Z,98484.53
2023-05-06T20:32:40.917Z,98500.97
2023-05-06T20:35:08.928Z,98494.31
2023-05-06T20:37:36.871Z,98506.38
2023-05-06T20:40:06.047Z,98496.19
2023-05-06T20:42:33.115Z,98481.78
2023-05-06T20:45:00.553Z,98494.72
2023-05-06T20:47:27.720Z,98477.63
2023-05-06T20:49:55.127Z,98493.25
2023-05-06T20:52:22.225Z,98500.56
2023-05-06T20:54:49.363Z,98514.69
2023-05-06T20:57:17.316Z,98501.97
2023-05-06T20:59:44.721Z,98509.69
2023-05-06T21:02:11.697Z,98521.16
2023-05-06T21:04:38.753Z,98512.22
2023-05-06T21:07:05.773Z,98504.06
2023-05-06T21:09:32.855Z,98519.88
2023-05-06T21:11:59.789Z,98507.19
2023-05-06T21:14:27.598Z,98517.81
2023-05-06T21:16:54.570Z,98519.28
2023-05-06T21:19:21.496Z,98482.22
2023-05-06T21:22:00.844Z,98521.97
2023-05-06T21:24:27.777Z,98519.91
2023-05-06T21:26:54.806Z,98524.06
2023-05-06T21:29:21.868Z,98514.91
2023-05-06T21:31:48.780Z,98514.47
2023-05-06T21:34:15.985Z,98525.91
2023-05-06T21:36:43.092Z,98523.44
2023-05-06T21:39:14.526Z,98524.50
2023-05-06T21:41:41.501Z,98532.16
2023-05-06T21:44:10.171Z,98527.78
2023-05-06T21:46:38.171Z,98514.41
2023-05-06T21:49:05.621Z,98520.03
2023-05-06T21:51:36.382Z,98522.75
2023-05-06T21:54:03.773Z,98529.63
2023-05-06T21:56:30.711Z,98536.50
2023-05-06T21:58:57.682Z,98531.69
2023-05-06T22:01:29.367Z,98538.94
2023-05-06T22:03:56.591Z,98544.94
2023-05-06T22:06:23.722Z,98536.00
2023-05-06T22:08:50.680Z,98539.31
2023-05-06T22:11:17.737Z,98546.16
2023-05-06T22:13:44.619Z,98541.16
2023-05-06T22:16:11.787Z,98540.97
2023-05-06T22:18:41.672Z,98514.91
2023-05-06T22:21:09.956Z,98512.63
2023-05-06T22:23:37.039Z,98527.28
2023-05-06T22:26:04.011Z,98533.06
2023-05-06T22:28:30.917Z,98536.19
2023-05-06T22:30:57.867Z,98525.34
2023-05-06T22:33:26.563Z,98503.50
2023-05-06T22:35:53.849Z,98539.34
2023-05-06T22:38:20.833Z,98530.97
2023-05-06T22:40:47.795Z,98517.69
2023-05-06T22:43:14.735Z,98522.25
2023-05-06T22:45:41.704Z,98543.44
2023-05-06T22:48:08.730Z,98539.22
2023-05-06T22:50:36.554Z,98543.28
2023-05-06T22:53:13.592Z,98532.41
2023-05-06T22:55:41.706Z,98542.38
2023-05-06T22:58:08.602Z,98539.66
2023-05-06T23:00:35.585Z,98543.56
2023-05-06T23:03:03.173Z,98540.69
2023-05-06T23:05:30.185Z,98539.41
2023-05-06T23:07:57.314Z,98541.06
2023-05-06T23:10:24.298Z,98551.41
2023-05-06T23:12:51.278Z,98544.25
2023-05-06T23:15:18.257Z,98530.91
2023-05-06T23:17:45.228Z,98553.34
2023-05-06T23:20:13.114Z,98522.69
2023-05-06T23:22:40.189Z,98570.22
2023-05-06T23:25:10.782Z,98560.88
2023-05-06T23:27:41.939Z,98555.47
2023-05-06T23:30:09.570Z,98557.84
2023-05-06T23:32:37.500Z,98556.41
2023-05-06T23:35:05.133Z,98557.84
2023-05-06T23:37:32.051Z,98553.88
2023-05-06T23:39:58.999Z,98551.41
2023-05-06T23:42:26.303Z,98552.63
2023-05-06T23:44:53.752Z,98567.59
2023-05-06T23:47:20.704Z,98560.69
2023-05-06T23:49:49.957Z,98560.03
2023-05-06T23:52:16.857Z,98564.81
2023-05-06T23:54:44.217Z,98568.78
2023-05-06T23:57:11.100Z,98557.34
2023-05-06T23:59:38.023Z,98544.75
